Bunola, PA (15020)

8:07 PM EDT on May 27, 2015 (GMT -0400)
Sugar Run Road | | Change Station
CLOSE
Current Station
Personal Weather Station
Location: Venetia, PA
Elevation: 1096 ft
Nearby Weather Stations

Elev 1096 ft 40.23 °N, 80.04 °W | Updated 2 minutes ago

Partly Cloudy
Partly Cloudy
83.3 °F
Feels Like 83 °F
N
0.0
Wind Variable Wind from East
Gusts 0.0 mph

Today
High -- | Low -- °F
--% Chance of Precip.
Yesterday
High -- | Low -- °F
Precip. -- in
5:54 AM 8:39 PM
Waxing Gibbous, 71% visible
Pressure 30.10 in
Visibility 10.0 miles
Clouds Clear
Heat Index 83 °F
Dew Point 60 °F
Humidity 45%
Rainfall 0.07 in
Snow Depth Not available.
UV 0 out of 12
Pollen 7.90 out of 12
Air Quality Not available.
Flu Activity Sporadic
METAR KAGC 272353Z 21007KT 10SM CLR 25/14 A3011 RMK AO2 SLP191 T02500144 10272 20244 53000

More Conditions Fewer Conditions

Pressure 30.10 in
Visibility 10.0 miles
Clouds Clear
Heat Index 83 °F
Dew Point 60 °F
Humidity 45%
Rainfall 0.07 in
Snow Depth Not available.
UV 0 out of 12
Pollen 7.90 out of 12
Air Quality Not available.
Flu Activity Sporadic
METAR KAGC 272353Z 21007KT 10SM CLR 25/14 A3011 RMK AO2 SLP191 T02500144 10272 20244 53000

More Conditions Fewer Conditions

10-Day Weather Forecast

Almanac

Astronomy

May. 27, 2015 Rise Set
Actual Time
Civil Twilight
Nautical Twilight
Astronomical Twilight
Moon
Length of Visible Light
Length of Day
Tomorrow will be .
, % of the Moon is Illuminated

Today's Extremes

State Highs State Lows

Community

WunderPhotos

Upload Photos

1,824,825 photos uploaded!

WunderBlogs® & News

Nearby

Air Quality

  Air Quality AQ Index Pollutant
Not available.

Snow Depth

Station Depth Elevation

Earthquake Activity

City Distance Mag. Time & Date
Minimum magnitude displayed is 2.5.

Coastal Water Temperatures

Place Temperature

Stations

Nearby Weather Stations

Station Location Temp. Windchill Dew Point Humidity Wind Precip. Elev Updated Type